createdAt,value
2022-08-19T00:05:21.956Z,20.2
2022-08-19T00:11:25.448Z,20.2
2022-08-19T00:17:41.937Z,20.3
2022-08-19T00:43:40.327Z,20
2022-08-19T00:49:46.292Z,19.6
2022-08-19T00:56:17.148Z,19.5
2022-08-19T01:10:12.258Z,19.5
2022-08-19T01:30:33.547Z,19.5
2022-08-19T01:50:28.039Z,19.2
2022-08-19T02:04:05.581Z,19.1
2022-08-19T03:19:17.889Z,18.8
2022-08-19T03:25:08.698Z,18.1
2022-08-19T03:31:01.543Z,18.4
2022-08-19T03:37:37.843Z,18.5
2022-08-19T03:43:31.873Z,18.7
2022-08-19T03:49:21.179Z,18
2022-08-19T03:55:16.507Z,18
2022-08-19T04:01:09.133Z,18.4
2022-08-19T04:07:02.744Z,18.3
2022-08-19T04:12:54.299Z,18.4
2022-08-19T04:18:47.303Z,18.6
2022-08-19T04:24:38.509Z,18.4
2022-08-19T04:30:30.297Z,18.4
2022-08-19T04:36:21.918Z,18.3
2022-08-19T04:42:13.950Z,18.1
2022-08-19T04:48:19.947Z,18.2
2022-08-19T04:54:38.090Z,18
2022-08-19T05:00:31.096Z,18.2
2022-08-19T05:06:27.845Z,18.4
2022-08-19T05:12:21.401Z,18.3
2022-08-19T05:18:17.807Z,18.5
2022-08-19T05:24:12.227Z,18.7
2022-08-19T05:30:03.516Z,18.7
2022-08-19T05:35:54.883Z,18.6
2022-08-19T05:41:45.194Z,18.8
2022-08-19T05:47:35.614Z,19.4
2022-08-19T05:53:32.059Z,20.4
2022-08-19T05:59:23.956Z,19.5
2022-08-19T06:05:22.095Z,19.3
2022-08-19T06:11:12.438Z,19.4
2022-08-19T06:17:06.312Z,19.3
2022-08-19T06:22:57.032Z,19.4
2022-08-19T06:28:47.022Z,19.6
2022-08-19T06:34:37.187Z,19.8
2022-08-19T06:40:26.727Z,19.8
2022-08-19T06:46:16.919Z,19.9
2022-08-19T06:52:07.932Z,20
2022-08-19T06:58:01.369Z,20
2022-08-19T07:03:51.719Z,20.1
2022-08-19T07:09:43.933Z,20.4
2022-08-19T07:15:52.425Z,20.8
2022-08-19T07:21:48.542Z,20.8
2022-08-19T07:27:41.603Z,21.2
2022-08-19T07:33:45.480Z,21.6
2022-08-19T07:39:39.038Z,21.4
2022-08-19T07:45:29.057Z,21.6
2022-08-19T07:51:28.652Z,21.7
2022-08-19T07:57:27.063Z,21.8
2022-08-19T08:03:18.417Z,21.8
2022-08-19T08:09:09.721Z,21.7
2022-08-19T08:15:08.112Z,22.2
2022-08-19T08:21:13.440Z,22.7
2022-08-19T08:27:04.575Z,22.5
2022-08-19T08:33:10.926Z,22.5
2022-08-19T08:39:17.479Z,22.4
2022-08-19T08:45:08.912Z,22.7
2022-08-19T08:51:02.091Z,23
2022-08-19T08:57:05.270Z,22.9
2022-08-19T09:02:56.887Z,23.2
2022-08-19T09:08:49.267Z,23.4
2022-08-19T09:16:04.832Z,23.2
2022-08-19T09:21:57.205Z,23.1
2022-08-19T09:27:52.385Z,23.3
2022-08-19T09:34:20.907Z,23.1
2022-08-19T09:40:12.410Z,23.2
2022-08-19T09:46:18.484Z,23.6
2022-08-19T09:52:15.137Z,23.4
2022-08-19T09:58:24.733Z,23.7
2022-08-19T10:04:28.186Z,23.6
2022-08-19T10:10:21.214Z,23.4
2022-08-19T10:16:12.551Z,23.6
2022-08-19T10:22:15.092Z,23.8
2022-08-19T10:28:10.717Z,23.7
2022-08-19T10:34:04.211Z,24.1
2022-08-19T10:40:10.835Z,24
2022-08-19T10:46:04.185Z,24.1
2022-08-19T10:52:06.406Z,24.2
2022-08-19T10:58:23.812Z,24.2
2022-08-19T11:04:15.375Z,25
2022-08-19T11:10:15.347Z,24.6
2022-08-19T11:16:13.404Z,24.5
2022-08-19T11:22:05.791Z,24.9
2022-08-19T11:28:13.201Z,25.1
2022-08-19T11:34:03.046Z,25.1
2022-08-19T11:39:54.548Z,25.4
2022-08-19T11:45:45.815Z,25.3
2022-08-19T11:51:38.050Z,25.5
2022-08-19T11:57:29.420Z,25.4
2022-08-19T12:03:21.482Z,25.2
2022-08-19T12:09:13.676Z,25.8
2022-08-19T12:15:09.995Z,25.6
2022-08-19T12:21:00.793Z,25.9
2022-08-19T12:26:59.070Z,25.7
2022-08-19T12:33:45.912Z,25.8
2022-08-19T12:39:39.391Z,25.9
2022-08-19T12:45:33.265Z,26.4
2022-08-19T12:51:37.789Z,25.9
2022-08-19T12:57:33.510Z,25.7
2022-08-19T13:03:28.950Z,26.2
2022-08-19T13:09:32.075Z,26.2
2022-08-19T13:15:26.217Z,26
2022-08-19T13:21:18.095Z,26.1
2022-08-19T13:27:12.512Z,26.2
2022-08-19T13:33:33.484Z,26.5
2022-08-19T13:39:29.274Z,26.6
2022-08-19T13:51:55.625Z,26.5
2022-08-19T13:57:57.365Z,26.4
2022-08-19T14:04:14.390Z,26.4
2022-08-19T14:10:05.392Z,26.6
2022-08-19T14:15:58.074Z,26.6
2022-08-19T14:21:50.282Z,26.5
2022-08-19T14:27:44.213Z,26.7
2022-08-19T14:33:38.600Z,26.5
2022-08-19T14:39:31.907Z,26.5
2022-08-19T14:45:32.273Z,26.2
2022-08-19T14:51:39.156Z,26.3
2022-08-19T14:57:31.631Z,26.6
2022-08-19T15:03:22.977Z,26.5
2022-08-19T15:09:14.793Z,26.4
2022-08-19T15:15:06.645Z,26.6
2022-08-19T15:20:55.889Z,26.5
2022-08-19T15:26:47.636Z,26.7
2022-08-19T15:32:38.821Z,26.6
2022-08-19T15:38:38.967Z,26.6
2022-08-19T15:44:36.298Z,26.6
2022-08-19T15:50:27.733Z,26.8
2022-08-19T15:56:18.633Z,26.9
2022-08-19T16:02:14.545Z,26.8
2022-08-19T16:08:19.446Z,26.6
2022-08-19T16:14:11.727Z,26.6
2022-08-19T16:20:02.758Z,26.3
2022-08-19T16:25:53.850Z,26.6
2022-08-19T16:31:46.363Z,26.1
2022-08-19T16:37:37.235Z,26
2022-08-19T16:43:28.733Z,26.1
2022-08-19T16:49:22.654Z,26.1
2022-08-19T16:55:43.155Z,26.3
2022-08-19T17:01:34.482Z,26.3
2022-08-19T17:07:26.594Z,26.2
2022-08-19T17:13:21.963Z,26.1
2022-08-19T17:19:14.168Z,26.2
2022-08-19T17:25:05.933Z,26
2022-08-19T17:30:57.464Z,25.9
2022-08-19T17:36:49.625Z,25.6
2022-08-19T17:42:42.702Z,25.6
2022-08-19T17:48:34.337Z,25.6
2022-08-19T17:54:23.441Z,25.2
2022-08-19T18:00:22.646Z,25
2022-08-19T18:06:21.307Z,25.1
2022-08-19T18:12:14.815Z,24.9
2022-08-19T18:18:05.204Z,24.8
2022-08-19T18:24:05.840Z,24.7
2022-08-19T18:29:57.630Z,24.5
2022-08-19T18:35:49.886Z,24.5
2022-08-19T18:41:42.997Z,24.5
2022-08-19T18:47:33.795Z,24.4
2022-08-19T18:53:24.642Z,24.3
2022-08-19T18:59:16.174Z,24.1
2022-08-19T19:05:08.051Z,24.2
2022-08-19T19:11:00.185Z,24.1
2022-08-19T19:16:53.459Z,24
2022-08-19T19:22:46.064Z,23.9
2022-08-19T19:28:46.733Z,24
2022-08-19T19:34:39.455Z,23.9
2022-08-19T19:40:30.820Z,23.6
2022-08-19T19:46:22.060Z,23.5
2022-08-19T19:52:13.911Z,23.5
2022-08-19T19:58:05.229Z,23.6
2022-08-19T20:03:56.419Z,23.4
2022-08-19T20:09:59.526Z,23.3
2022-08-19T20:15:53.490Z,23.2
2022-08-19T20:21:47.570Z,23.4
2022-08-19T20:27:45.303Z,23.2
2022-08-19T20:33:37.233Z,23.1
2022-08-19T20:39:29.111Z,23.1
2022-08-19T20:45:26.747Z,23.1
2022-08-19T20:51:22.877Z,23
2022-08-19T20:57:15.232Z,23
2022-08-19T21:03:07.557Z,22.8
2022-08-19T21:08:58.272Z,22.7
2022-08-19T21:14:50.104Z,22.7
2022-08-19T21:20:42.501Z,22.6
2022-08-19T21:26:32.628Z,22.5
2022-08-19T21:32:23.378Z,22.5
2022-08-19T21:38:16.693Z,22.5
2022-08-19T21:44:08.538Z,22.5
2022-08-19T21:50:00.611Z,22.5
2022-08-19T21:55:53.930Z,22.3
2022-08-19T22:01:49.597Z,22.4
2022-08-19T22:08:07.429Z,22.5
2022-08-19T22:13:59.823Z,22.5
2022-08-19T22:19:56.032Z,22.5
2022-08-19T22:25:50.009Z,22.4
2022-08-19T22:31:41.681Z,22.4
2022-08-19T22:37:45.028Z,22.4
2022-08-19T22:43:36.121Z,22.4
2022-08-19T22:49:29.856Z,22.2
2022-08-19T22:55:24.948Z,22.1
2022-08-19T23:01:37.866Z,22.1
2022-08-19T23:07:28.998Z,21.9
2022-08-19T23:13:20.119Z,22
2022-08-19T23:19:12.941Z,21.9
2022-08-19T23:25:11.053Z,21.9
2022-08-19T23:31:15.360Z,21.8
2022-08-19T23:37:13.574Z,21.7
2022-08-19T23:43:09.734Z,21.8
2022-08-19T23:49:19.232Z,21.7
2022-08-19T23:55:22.410Z,21.3
